createdAt,value
2023-06-30T00:01:09.997Z,16.76
2023-06-30T00:06:06.498Z,16.68
2023-06-30T00:11:03.396Z,16.66
2023-06-30T00:15:59.855Z,16.63
2023-06-30T00:20:56.516Z,16.64
2023-06-30T00:25:53.045Z,16.68
2023-06-30T00:30:49.575Z,16.54
2023-06-30T00:35:46.262Z,16.43
2023-06-30T00:40:42.927Z,16.38
2023-06-30T00:45:39.353Z,16.32
2023-06-30T00:50:35.940Z,16.30
2023-06-30T00:55:33.198Z,16.04
2023-06-30T01:00:29.808Z,15.97
2023-06-30T01:05:40.882Z,15.86
2023-06-30T01:10:38.704Z,15.85
2023-06-30T01:15:36.122Z,15.80
2023-06-30T01:20:36.473Z,15.80
2023-06-30T01:25:33.442Z,15.77
2023-06-30T01:30:31.290Z,15.74
2023-06-30T01:35:29.045Z,15.61
2023-06-30T01:40:25.679Z,15.60
2023-06-30T01:45:26.303Z,15.67
2023-06-30T01:50:23.556Z,15.58
2023-06-30T01:55:20.009Z,15.63
2023-06-30T02:00:16.636Z,15.55
2023-06-30T02:05:13.819Z,15.54
2023-06-30T02:10:10.604Z,15.52
2023-06-30T02:15:07.707Z,15.50
2023-06-30T02:20:07.540Z,15.49
2023-06-30T02:25:04.450Z,15.39
2023-06-30T02:30:06.563Z,15.28
2023-06-30T02:35:03.357Z,15.21
2023-06-30T02:39:59.853Z,15.22
2023-06-30T02:44:56.288Z,15.24
2023-06-30T02:49:52.786Z,15.23
2023-06-30T02:54:49.557Z,15.24
2023-06-30T02:59:45.965Z,15.18
2023-06-30T03:04:42.396Z,15.16
2023-06-30T03:09:38.862Z,15.14
2023-06-30T03:14:35.444Z,15.12
2023-06-30T03:19:31.851Z,15.11
2023-06-30T03:24:28.278Z,15.11
2023-06-30T03:29:24.836Z,15.06
2023-06-30T03:34:21.320Z,14.76
2023-06-30T03:39:18.998Z,14.57
2023-06-30T03:44:15.732Z,14.46
2023-06-30T03:49:12.156Z,14.42
2023-06-30T03:54:10.022Z,14.39
2023-06-30T03:59:06.551Z,14.40
2023-06-30T04:04:03.659Z,14.34
2023-06-30T04:09:04.171Z,14.40
2023-06-30T04:14:00.886Z,14.52
2023-06-30T04:18:57.471Z,14.59
2023-06-30T04:23:54.013Z,14.66
2023-06-30T04:28:50.478Z,14.61
2023-06-30T04:33:46.924Z,14.66
2023-06-30T04:38:46.319Z,14.63
2023-06-30T04:43:44.960Z,14.66
2023-06-30T04:48:41.494Z,14.61
2023-06-30T04:53:40.159Z,14.50
2023-06-30T04:58:36.711Z,14.46
2023-06-30T05:03:33.451Z,14.40
2023-06-30T05:08:29.956Z,14.38
2023-06-30T05:13:27.974Z,14.39
2023-06-30T05:18:24.367Z,14.38
2023-06-30T05:23:20.911Z,14.29
2023-06-30T05:28:17.332Z,14.30
2023-06-30T05:33:13.740Z,14.28
2023-06-30T05:38:10.158Z,14.28
2023-06-30T05:43:06.601Z,14.33
2023-06-30T05:48:03.212Z,14.36
2023-06-30T05:52:59.701Z,14.42
2023-06-30T05:57:56.190Z,14.51
2023-06-30T06:02:52.694Z,14.65
2023-06-30T06:07:49.627Z,14.66
2023-06-30T06:12:46.050Z,14.61
2023-06-30T06:17:42.589Z,14.59
2023-06-30T06:22:39.072Z,14.58
2023-06-30T06:27:36.714Z,14.77
2023-06-30T06:32:33.273Z,14.71
2023-06-30T06:37:29.712Z,14.72
2023-06-30T06:42:26.190Z,14.99
2023-06-30T06:48:00.251Z,15.04
2023-06-30T06:52:56.721Z,14.99
2023-06-30T06:57:54.876Z,15.15
2023-06-30T07:02:52.353Z,15.30
2023-06-30T07:07:48.989Z,15.24
2023-06-30T07:12:45.729Z,15.29
2023-06-30T07:17:42.417Z,15.58
2023-06-30T07:22:39.098Z,15.49
2023-06-30T07:27:38.194Z,15.61
2023-06-30T07:32:35.386Z,16.08
2023-06-30T07:37:31.903Z,16.08
2023-06-30T07:42:28.345Z,15.83
2023-06-30T07:47:24.845Z,15.97
2023-06-30T07:52:21.357Z,15.54
2023-06-30T07:57:17.751Z,15.65
2023-06-30T08:02:14.194Z,15.86
2023-06-30T08:07:10.811Z,15.94
2023-06-30T08:12:07.683Z,15.93
2023-06-30T08:17:04.409Z,16.10
2023-06-30T08:22:02.859Z,15.99
2023-06-30T08:26:59.470Z,15.84
2023-06-30T08:31:55.929Z,15.90
2023-06-30T08:36:54.103Z,16.24
2023-06-30T08:41:54.007Z,16.33
2023-06-30T08:46:54.522Z,16.65
2023-06-30T08:51:58.240Z,17.54
2023-06-30T08:56:55.245Z,16.99
2023-06-30T09:01:52.234Z,17.10
2023-06-30T09:06:49.969Z,17.13
2023-06-30T09:11:46.399Z,17.06
2023-06-30T09:16:42.897Z,17.13
2023-06-30T09:21:39.557Z,17.33
2023-06-30T09:26:36.115Z,17.52
2023-06-30T09:31:32.728Z,16.90
2023-06-30T09:36:30.034Z,16.94
2023-06-30T09:41:27.152Z,17.58
2023-06-30T09:46:23.692Z,17.88
2023-06-30T09:51:24.198Z,18.29
2023-06-30T09:56:24.542Z,18.91
2023-06-30T10:01:21.858Z,17.01
2023-06-30T10:06:19.231Z,17.30
2023-06-30T10:11:15.794Z,17.38
2023-06-30T10:16:12.983Z,17.89
2023-06-30T10:21:09.511Z,18.62
2023-06-30T10:26:07.284Z,18.18
2023-06-30T10:31:04.040Z,18.09
2023-06-30T10:36:01.292Z,18.62
2023-06-30T10:41:18.637Z,18.68
2023-06-30T10:46:15.297Z,18.66
2023-06-30T10:51:12.712Z,18.68
2023-06-30T10:56:09.947Z,18.82
2023-06-30T11:01:07.316Z,19.48
2023-06-30T11:06:22.214Z,19.09
2023-06-30T11:11:18.812Z,19.22
2023-06-30T11:16:15.285Z,19.06
2023-06-30T11:21:11.729Z,19.37
2023-06-30T11:26:18.805Z,19.45
2023-06-30T11:31:16.391Z,19.27
2023-06-30T11:36:16.349Z,19.15
2023-06-30T11:41:13.029Z,19.92
2023-06-30T11:46:10.900Z,19.92
2023-06-30T11:51:07.594Z,20.29
2023-06-30T11:56:04.195Z,19.76
2023-06-30T12:01:04.723Z,19.63
2023-06-30T12:06:02.602Z,19.57
2023-06-30T12:10:59.102Z,19.97
2023-06-30T12:15:59.385Z,19.99
2023-06-30T12:20:58.242Z,19.71
2023-06-30T12:25:57.637Z,20.29
2023-06-30T12:30:55.097Z,20.98
2023-06-30T12:35:51.481Z,20.83
2023-06-30T12:40:48.289Z,20.36
2023-06-30T12:45:44.953Z,20.73
2023-06-30T12:50:41.815Z,20.00
2023-06-30T12:55:38.442Z,20.14
2023-06-30T13:00:34.856Z,19.65
2023-06-30T13:05:31.473Z,20.10
2023-06-30T13:10:29.125Z,20.41
2023-06-30T13:15:26.035Z,19.95
2023-06-30T13:20:22.930Z,19.94
2023-06-30T13:25:20.122Z,20.25
2023-06-30T13:30:16.714Z,20.55
2023-06-30T13:35:13.173Z,20.27
2023-06-30T13:40:10.044Z,20.60
2023-06-30T13:45:08.361Z,20.68
2023-06-30T13:50:07.324Z,20.64
2023-06-30T13:55:04.287Z,20.79
2023-06-30T14:00:00.704Z,21.27
2023-06-30T14:04:59.319Z,21.75
2023-06-30T14:09:59.435Z,21.63
2023-06-30T14:14:55.925Z,20.86
2023-06-30T14:19:52.473Z,21.38
2023-06-30T14:24:49.036Z,21.73
2023-06-30T14:29:45.554Z,22.38
2023-06-30T14:34:42.307Z,21.94
2023-06-30T14:39:39.086Z,22.48
2023-06-30T14:44:35.535Z,21.48
2023-06-30T14:49:31.941Z,21.80
2023-06-30T14:54:28.378Z,21.54
2023-06-30T14:59:24.859Z,21.22
2023-06-30T15:04:21.423Z,20.95
2023-06-30T15:09:17.958Z,21.39
2023-06-30T15:14:14.367Z,21.06
2023-06-30T15:19:10.811Z,20.48
2023-06-30T15:24:07.425Z,20.82
2023-06-30T15:29:03.846Z,21.25
2023-06-30T15:34:00.303Z,20.89
2023-06-30T15:38:56.758Z,20.64
2023-06-30T15:43:53.172Z,20.56
2023-06-30T15:48:49.642Z,20.44
2023-06-30T15:53:46.078Z,20.35
2023-06-30T15:58:42.689Z,20.85
2023-06-30T16:03:39.451Z,20.73
2023-06-30T16:08:36.110Z,20.16
2023-06-30T16:13:32.568Z,19.96
2023-06-30T16:18:29.023Z,20.11
2023-06-30T16:23:25.490Z,20.22
2023-06-30T16:28:21.900Z,20.60
2023-06-30T16:33:18.439Z,21.27
2023-06-30T16:38:15.022Z,21.61
2023-06-30T16:43:11.454Z,21.06
2023-06-30T16:48:07.923Z,20.68
2023-06-30T16:53:04.486Z,20.34
2023-06-30T16:58:03.876Z,20.13
2023-06-30T17:03:00.344Z,19.91
2023-06-30T17:07:56.821Z,19.94
2023-06-30T17:12:53.333Z,19.86
2023-06-30T17:17:49.849Z,20.00
2023-06-30T17:22:46.377Z,20.13
2023-06-30T17:27:43.079Z,20.02
2023-06-30T17:32:40.084Z,20.17
2023-06-30T17:37:36.617Z,20.36
2023-06-30T17:42:33.049Z,20.38
2023-06-30T17:47:29.461Z,20.21
2023-06-30T17:52:25.909Z,20.27
2023-06-30T17:57:22.340Z,21.05
2023-06-30T18:02:18.958Z,21.25
2023-06-30T18:07:15.851Z,23.62
2023-06-30T18:12:12.496Z,23.96
2023-06-30T18:17:09.199Z,25.84
2023-06-30T18:22:07.088Z,26.28
2023-06-30T18:27:03.761Z,26.18
2023-06-30T18:32:00.953Z,25.56
2023-06-30T18:36:57.657Z,24.07
2023-06-30T18:41:55.949Z,23.10
2023-06-30T18:46:52.618Z,23.14
2023-06-30T18:51:50.731Z,22.92
2023-06-30T18:56:47.341Z,23.32
2023-06-30T19:01:44.147Z,23.89
2023-06-30T19:06:41.280Z,23.60
2023-06-30T19:11:38.936Z,22.86
2023-06-30T19:16:35.435Z,22.25
2023-06-30T19:21:32.186Z,21.45
2023-06-30T19:26:28.671Z,20.62
2023-06-30T19:31:28.553Z,19.66
2023-06-30T19:36:26.371Z,19.00
2023-06-30T19:41:24.640Z,18.42
2023-06-30T19:46:21.427Z,17.87
2023-06-30T19:51:17.921Z,17.44
2023-06-30T19:56:14.831Z,17.02
2023-06-30T20:01:11.457Z,16.67
2023-06-30T20:06:08.015Z,16.41
2023-06-30T20:11:04.438Z,16.22
2023-06-30T20:16:00.850Z,15.98
2023-06-30T20:20:57.728Z,15.80
2023-06-30T20:25:54.178Z,15.66
2023-06-30T20:30:50.954Z,15.55
2023-06-30T20:35:47.791Z,15.34
2023-06-30T20:40:44.310Z,15.28
2023-06-30T20:45:41.910Z,15.20
2023-06-30T20:50:38.313Z,15.09
2023-06-30T20:55:34.826Z,15.02
2023-06-30T21:00:31.418Z,14.78
2023-06-30T21:05:27.851Z,14.66
2023-06-30T21:10:24.319Z,14.65
2023-06-30T21:15:20.762Z,14.54
2023-06-30T21:20:18.051Z,14.46
2023-06-30T21:25:14.513Z,14.37
2023-06-30T21:30:11.529Z,14.22
2023-06-30T21:35:08.358Z,14.07
2023-06-30T21:40:05.329Z,13.87
2023-06-30T21:45:01.998Z,13.70
2023-06-30T21:49:58.506Z,13.69
2023-06-30T21:54:55.061Z,13.68
2023-06-30T21:59:51.486Z,13.76
2023-06-30T22:04:47.965Z,13.68
2023-06-30T22:09:44.440Z,13.49
2023-06-30T22:14:41.032Z,13.40
2023-06-30T22:19:38.302Z,13.31
2023-06-30T22:24:34.910Z,13.18
2023-06-30T22:29:31.396Z,13.04
2023-06-30T22:34:28.078Z,13.01
2023-06-30T22:39:24.526Z,13.07
2023-06-30T22:44:21.036Z,13.10
2023-06-30T22:49:17.425Z,13.16
2023-06-30T22:54:13.908Z,13.17
2023-06-30T22:59:10.329Z,13.27
2023-06-30T23:04:06.915Z,13.36
2023-06-30T23:09:07.958Z,13.47
2023-06-30T23:14:05.145Z,13.61
2023-06-30T23:19:01.649Z,13.67
2023-06-30T23:23:58.220Z,13.82
2023-06-30T23:28:56.150Z,13.85
2023-06-30T23:33:53.335Z,13.86
2023-06-30T23:38:50.865Z,13.85
2023-06-30T23:43:48.048Z,13.83
2023-06-30T23:48:45.493Z,13.72
2023-06-30T23:53:41.952Z,13.63
2023-06-30T23:58:38.362Z,13.56
